Time;durP1;ratioP1;P1;durP2;ratioP2;P2;SDS_P1;SDS_P2;PMS_P1;PMS_P2;Temp;Humidity;BMP_temperature;BMP_pressure;BME280_temperature;BME280_humidity;BME280_pressure;Samples;Min_cycle;Max_cycle;Signal;HPM_P1;HPM_P2
2022/10/08 00:01:50;;;;;;;90.13;38.40;;;;;;;;;;6167603;28;20046;-61
2022/10/08 00:04:51;;;;;;;80.35;35.20;;;;;;;;;;6168638;28;20574;-57
2022/10/08 00:07:53;;;;;;;105.25;37.38;;;;;;;;;;6168355;28;20162;-61
2022/10/08 00:10:59;;;;;;;181.25;39.17;;;;;;;;;;6167089;28;20150;-60
2022/10/08 00:14:00;;;;;;;100.68;34.85;;;;;;;;;;6168238;28;20489;-60
2022/10/08 00:17:01;;;;;;;92.65;37.88;;;;;;;;;;6168356;28;20047;-59
2022/10/08 00:20:02;;;;;;;135.35;43.53;;;;;;;;;;6167333;28;20129;-59
2022/10/08 00:23:02;;;;;;;138.93;40.65;;;;;;;;;;6167404;28;20134;-56
2022/10/08 00:26:05;;;;;;;176.65;40.85;;;;;;;;;;6167467;28;20043;-59
2022/10/08 00:29:07;;;;;;;193.93;48.28;;;;;;;;;;6167219;28;20043;-60
2022/10/08 00:32:07;;;;;;;152.63;43.25;;;;;;;;;;6166802;28;20050;-58
2022/10/08 00:35:08;;;;;;;218.75;46.70;;;;;;;;;;6167866;28;20081;-61
2022/10/08 00:38:08;;;;;;;267.15;46.75;;;;;;;;;;6168010;28;20490;-60
2022/10/08 00:41:20;;;;;;;122.47;45.60;;;;;;;;;;6166258;28;20050;-58
2022/10/08 00:44:53;;;;;;;119.05;42.95;;;;;;;;;;6167488;28;20522;-60
2022/10/08 00:47:55;;;;;;;211.07;46.30;;;;;;;;;;6167565;28;20137;-61
2022/10/08 00:50:55;;;;;;;158.20;45.15;;;;;;;;;;6167689;28;20043;-61
2022/10/08 00:53:57;;;;;;;264.17;47.03;;;;;;;;;;6166364;28;20042;-60
2022/10/08 00:56:57;;;;;;;163.30;46.30;;;;;;;;;;6167276;28;21507;-60
2022/10/08 01:00:02;;;;;;;155.93;45.17;;;;;;;;;;6167890;28;20069;-58
2022/10/08 01:03:02;;;;;;;147.32;42.67;;;;;;;;;;6166156;28;20049;-60
2022/10/08 01:06:29;;;;;;;155.25;46.05;;;;;;;;;;6167299;28;20094;-60
2022/10/08 01:09:32;;;;;;;160.25;46.67;;;;;;;;;;6167720;28;20180;-56
2022/10/08 01:12:43;;;;;;;205.98;46.70;;;;;;;;;;6167257;28;20143;-59
2022/10/08 01:15:54;;;;;;;246.48;48.63;;;;;;;;;;6166408;28;20043;-59
2022/10/08 01:18:54;;;;;;;147.48;44.40;;;;;;;;;;6166830;28;20137;-57
2022/10/08 01:22:34;;;;;;;143.07;45.15;;;;;;;;;;6167465;28;20049;-58
2022/10/08 01:25:55;;;;;;;140.63;44.38;;;;;;;;;;6167089;28;20058;-58
2022/10/08 01:29:22;;;;;;;194.70;44.28;;;;;;;;;;6165987;28;20487;-58
2022/10/08 01:32:33;;;;;;;209.15;45.63;;;;;;;;;;6165976;28;20498;-58
2022/10/08 01:35:36;;;;;;;110.23;42.00;;;;;;;;;;6167309;28;20524;-61
2022/10/08 01:38:41;;;;;;;121.88;44.22;;;;;;;;;;6169451;28;20395;-59
2022/10/08 01:41:47;;;;;;;148.35;41.20;;;;;;;;;;6170235;28;20108;-59
2022/10/08 01:44:55;;;;;;;132.57;46.15;;;;;;;;;;6171430;28;20070;-59
2022/10/08 01:47:59;;;;;;;126.68;45.90;;;;;;;;;;6178807;28;20046;-59
2022/10/08 01:51:25;;;;;;;176.02;45.60;;;;;;;;;;6169461;28;20468;-59
2022/10/08 01:54:29;;;;;;;165.07;41.33;;;;;;;;;;6164774;28;20097;-60
2022/10/08 01:57:32;;;;;;;155.90;41.83;;;;;;;;;;6169136;28;20051;-58
2022/10/08 02:00:34;;;;;;;191.60;39.55;;;;;;;;;;6162978;28;20046;-59
2022/10/08 02:03:35;;;;;;;113.28;39.17;;;;;;;;;;6162247;28;20070;-61
2022/10/08 02:06:39;;;;;;;138.57;40.83;;;;;;;;;;6163077;28;20120;-58
2022/10/08 02:09:43;;;;;;;195.18;47.97;;;;;;;;;;6170323;28;20049;-59
2022/10/08 02:12:44;;;;;;;225.52;48.53;;;;;;;;;;6167587;28;20482;-60
2022/10/08 02:16:04;;;;;;;146.93;48.25;;;;;;;;;;6161990;28;20453;-59
2022/10/08 02:19:23;;;;;;;172.35;46.63;;;;;;;;;;6163851;28;20117;-60
2022/10/08 02:22:31;;;;;;;177.18;48.03;;;;;;;;;;6161033;28;20557;-59
2022/10/08 02:26:00;;;;;;;185.73;49.72;;;;;;;;;;6158369;28;20074;-58
2022/10/08 02:29:09;;;;;;;169.63;48.35;;;;;;;;;;6159545;28;20137;-60
2022/10/08 02:32:28;;;;;;;176.63;46.55;;;;;;;;;;6161358;28;20102;-59
2022/10/08 02:35:41;;;;;;;214.52;47.30;;;;;;;;;;6161344;28;20561;-58
2022/10/08 02:38:47;;;;;;;219.98;49.65;;;;;;;;;;6161360;28;20062;-58
2022/10/08 02:41:52;;;;;;;150.93;45.75;;;;;;;;;;6159424;28;20079;-60
2022/10/08 02:45:03;;;;;;;179.15;48.53;;;;;;;;;;6160006;28;20046;-58
2022/10/08 02:48:13;;;;;;;212.38;46.72;;;;;;;;;;6163888;28;20058;-60
2022/10/08 02:51:17;;;;;;;149.18;46.50;;;;;;;;;;6155217;28;20054;-60
2022/10/08 02:54:20;;;;;;;221.52;46.45;;;;;;;;;;6166867;28;20074;-58
2022/10/08 02:57:39;;;;;;;159.02;43.00;;;;;;;;;;6164841;28;20042;-59
2022/10/08 03:00:53;;;;;;;167.60;42.38;;;;;;;;;;6166205;28;20138;-58
2022/10/08 03:04:06;;;;;;;194.52;44.25;;;;;;;;;;6159549;28;20125;-59
2022/10/08 03:07:09;;;;;;;168.35;42.53;;;;;;;;;;6160753;28;20047;-62
2022/10/08 03:10:11;;;;;;;173.98;45.30;;;;;;;;;;6161835;28;20053;-58
2022/10/08 03:13:12;;;;;;;160.65;44.17;;;;;;;;;;6160521;28;20838;-61
2022/10/08 03:16:17;;;;;;;209.50;46.78;;;;;;;;;;6161527;28;20054;-60
2022/10/08 03:19:18;;;;;;;186.32;46.28;;;;;;;;;;6166924;28;20205;-61
2022/10/08 03:22:18;;;;;;;231.68;49.10;;;;;;;;;;6166092;28;20050;-61
2022/10/08 03:25:19;;;;;;;308.88;47.78;;;;;;;;;;6160354;28;20466;-59
2022/10/08 03:28:20;;;;;;;185.98;46.97;;;;;;;;;;6163287;28;20035;-59
2022/10/08 03:31:20;;;;;;;173.00;45.17;;;;;;;;;;6162467;28;20043;-58
2022/10/08 03:34:23;;;;;;;134.38;43.55;;;;;;;;;;6158984;28;20097;-60
2022/10/08 03:37:24;;;;;;;128.10;45.75;;;;;;;;;;6168133;28;20392;-60
2022/10/08 03:40:25;;;;;;;128.52;44.67;;;;;;;;;;6158613;28;20039;-58
2022/10/08 03:43:32;;;;;;;116.85;43.22;;;;;;;;;;6160557;28;20142;-59
2022/10/08 03:46:33;;;;;;;140.82;42.40;;;;;;;;;;6160511;28;20064;-56
2022/10/08 03:49:34;;;;;;;123.85;43.20;;;;;;;;;;6162040;28;20145;-59
2022/10/08 03:52:34;;;;;;;151.52;43.53;;;;;;;;;;6162171;28;20482;-60
2022/10/08 03:55:35;;;;;;;138.75;44.33;;;;;;;;;;6159766;28;20042;-57
2022/10/08 03:58:35;;;;;;;161.23;43.75;;;;;;;;;;6160682;28;20053;-60
2022/10/08 04:01:36;;;;;;;119.90;42.42;;;;;;;;;;6161903;28;20407;-58
2022/10/08 04:04:36;;;;;;;146.40;42.75;;;;;;;;;;6159427;28;20659;-60
2022/10/08 04:07:37;;;;;;;139.82;41.45;;;;;;;;;;6159514;28;20070;-59
2022/10/08 04:10:37;;;;;;;126.68;41.53;;;;;;;;;;6160009;28;20053;-59
2022/10/08 04:13:38;;;;;;;132.25;42.78;;;;;;;;;;6166655;28;20137;-59
2022/10/08 04:16:39;;;;;;;127.50;44.58;;;;;;;;;;6166458;28;20042;-59
2022/10/08 04:19:39;;;;;;;128.20;44.90;;;;;;;;;;6169132;28;20082;-59
2022/10/08 04:22:40;;;;;;;213.10;46.63;;;;;;;;;;6178377;28;20046;-61
2022/10/08 04:25:49;;;;;;;199.98;44.40;;;;;;;;;;6164937;28;20093;-60
2022/10/08 04:28:49;;;;;;;193.48;46.42;;;;;;;;;;6160142;28;20104;-60
2022/10/08 04:31:50;;;;;;;242.35;45.42;;;;;;;;;;6163964;28;20135;-61
2022/10/08 04:34:50;;;;;;;180.80;41.22;;;;;;;;;;6158468;28;20486;-61
2022/10/08 04:37:51;;;;;;;132.05;38.50;;;;;;;;;;6159891;28;20047;-61
2022/10/08 04:41:07;;;;;;;228.25;39.15;;;;;;;;;;6159233;28;20047;-60
2022/10/08 04:44:07;;;;;;;141.98;37.22;;;;;;;;;;6158462;28;20088;-60
2022/10/08 04:47:08;;;;;;;182.45;37.45;;;;;;;;;;6157942;28;20413;-59
2022/10/08 04:50:08;;;;;;;182.48;36.45;;;;;;;;;;6156931;28;20514;-60
2022/10/08 04:53:09;;;;;;;105.95;35.60;;;;;;;;;;6159278;28;20502;-61
2022/10/08 04:56:22;;;;;;;143.27;39.00;;;;;;;;;;6158152;28;20097;-60
2022/10/08 04:59:23;;;;;;;161.73;39.88;;;;;;;;;;6159044;28;20161;-58
2022/10/08 05:02:24;;;;;;;195.90;39.78;;;;;;;;;;6158873;28;20047;-59
2022/10/08 05:05:24;;;;;;;185.15;37.42;;;;;;;;;;6159457;28;20045;-61
2022/10/08 05:08:25;;;;;;;149.88;37.28;;;;;;;;;;6160367;28;20046;-59
2022/10/08 05:11:25;;;;;;;143.13;36.40;;;;;;;;;;6158155;28;20046;-57
2022/10/08 05:14:26;;;;;;;171.38;38.35;;;;;;;;;;6163302;28;20046;-58
2022/10/08 05:17:26;;;;;;;139.23;35.15;;;;;;;;;;6163295;28;20113;-57
2022/10/08 05:20:27;;;;;;;115.13;35.00;;;;;;;;;;6164749;28;20122;-58
2022/10/08 05:23:27;;;;;;;118.30;36.15;;;;;;;;;;6166871;28;20490;-60
2022/10/08 05:26:37;;;;;;;115.43;35.42;;;;;;;;;;6162568;28;20046;-62
2022/10/08 05:29:37;;;;;;;107.55;37.22;;;;;;;;;;6168695;28;20125;-59
2022/10/08 05:32:38;;;;;;;111.72;35.65;;;;;;;;;;6162679;28;20049;-57
2022/10/08 05:35:38;;;;;;;101.97;34.50;;;;;;;;;;6163145;28;20035;-58
2022/10/08 05:38:42;;;;;;;104.30;35.72;;;;;;;;;;6167140;28;20440;-59
2022/10/08 05:41:42;;;;;;;131.75;36.17;;;;;;;;;;6162728;28;20505;-58
2022/10/08 05:44:43;;;;;;;89.68;33.20;;;;;;;;;;6161876;28;20138;-59
2022/10/08 05:47:46;;;;;;;91.30;33.83;;;;;;;;;;6160641;28;20050;-59
2022/10/08 05:50:47;;;;;;;88.88;36.92;;;;;;;;;;6162838;28;20138;-61
2022/10/08 05:53:50;;;;;;;117.43;39.90;;;;;;;;;;6162060;28;20049;-59
2022/10/08 05:56:51;;;;;;;135.75;43.13;;;;;;;;;;6164546;28;20313;-59
2022/10/08 05:59:52;;;;;;;104.95;40.40;;;;;;;;;;6166444;28;20090;-60
2022/10/08 06:02:52;;;;;;;98.40;40.78;;;;;;;;;;6164273;28;20139;-58
2022/10/08 06:05:54;;;;;;;95.00;39.10;;;;;;;;;;6164425;28;20056;-57
2022/10/08 06:08:59;;;;;;;94.23;39.47;;;;;;;;;;6162384;28;20633;-57
2022/10/08 06:12:00;;;;;;;79.28;37.05;;;;;;;;;;6165097;28;20039;-57
2022/10/08 06:15:00;;;;;;;87.72;35.28;;;;;;;;;;6160232;28;20611;-60
2022/10/08 06:18:01;;;;;;;79.63;34.17;;;;;;;;;;6161128;28;20458;-62
2022/10/08 06:21:08;;;;;;;80.60;36.90;;;;;;;;;;6161391;28;20073;-61
2022/10/08 06:24:10;;;;;;;82.75;36.55;;;;;;;;;;6161521;28;20046;-57
2022/10/08 06:27:11;;;;;;;87.75;35.92;;;;;;;;;;6160641;28;20047;-59
2022/10/08 06:30:11;;;;;;;86.38;36.72;;;;;;;;;;6143792;28;20388;-59
2022/10/08 06:33:15;;;;;;;91.57;38.47;;;;;;;;;;6167787;28;20051;-58
2022/10/08 06:36:18;;;;;;;91.32;39.50;;;;;;;;;;6161496;28;20070;-59
2022/10/08 06:39:19;;;;;;;92.93;41.25;;;;;;;;;;6159979;28;20051;-59
2022/10/08 06:42:19;;;;;;;98.15;42.30;;;;;;;;;;6160191;28;20514;-58
2022/10/08 06:45:20;;;;;;;97.78;44.53;;;;;;;;;;6160998;28;20050;-56
2022/10/08 06:48:22;;;;;;;104.20;45.67;;;;;;;;;;6159630;28;20137;-58
2022/10/08 06:51:23;;;;;;;103.95;45.63;;;;;;;;;;6163434;28;20149;-59
2022/10/08 06:54:26;;;;;;;107.72;46.60;;;;;;;;;;6167263;28;20047;-59
2022/10/08 06:57:26;;;;;;;106.05;46.50;;;;;;;;;;6160765;28;20109;-60
2022/10/08 07:00:27;;;;;;;106.60;46.10;;;;;;;;;;6169399;28;20050;-60
2022/10/08 07:03:28;;;;;;;103.32;44.50;;;;;;;;;;6165597;28;20442;-62
2022/10/08 07:06:29;;;;;;;102.68;43.47;;;;;;;;;;6161333;28;20116;-61
2022/10/08 07:09:30;;;;;;;105.10;42.97;;;;;;;;;;6161560;28;20058;-61
2022/10/08 07:12:31;;;;;;;98.47;42.97;;;;;;;;;;6161948;28;20058;-61
2022/10/08 07:15:32;;;;;;;98.53;40.67;;;;;;;;;;6162025;28;20062;-61
2022/10/08 07:18:34;;;;;;;94.80;41.75;;;;;;;;;;6159899;28;20917;-60
2022/10/08 07:21:35;;;;;;;100.78;40.63;;;;;;;;;;6161917;28;20534;-60
2022/10/08 07:24:35;;;;;;;92.20;40.60;;;;;;;;;;6161709;28;20057;-60
2022/10/08 07:27:36;;;;;;;101.28;41.80;;;;;;;;;;6163736;28;20546;-59
2022/10/08 07:30:36;;;;;;;97.47;40.85;;;;;;;;;;6162017;28;20070;-61
2022/10/08 07:33:39;;;;;;;91.60;41.67;;;;;;;;;;6162641;28;20045;-62
2022/10/08 07:36:40;;;;;;;97.00;41.60;;;;;;;;;;6159385;28;20487;-59
2022/10/08 07:39:40;;;;;;;93.65;41.35;;;;;;;;;;6158526;28;20043;-60
2022/10/08 07:42:41;;;;;;;91.82;41.28;;;;;;;;;;6160072;28;20129;-59
2022/10/08 07:45:44;;;;;;;96.30;43.65;;;;;;;;;;6158667;28;20054;-59
2022/10/08 07:48:44;;;;;;;;;;;;;;;;;;6167742;28;20466;-60
2022/10/08 07:51:47;;;;;;;86.80;37.92;;;;;;;;;;6164741;28;19922;-61
2022/10/08 07:54:47;;;;;;;90.38;40.08;;;;;;;;;;6167895;28;20133;-58
2022/10/08 07:57:48;;;;;;;94.65;40.55;;;;;;;;;;6161449;28;20085;-60
2022/10/08 08:00:48;;;;;;;78.22;36.75;;;;;;;;;;6160698;28;20039;-59
2022/10/08 08:03:56;;;;;;;78.50;36.78;;;;;;;;;;6158284;28;20158;-62
2022/10/08 08:06:57;;;;;;;80.30;36.85;;;;;;;;;;6155680;28;20051;-62
2022/10/08 08:09:57;;;;;;;73.03;35.75;;;;;;;;;;6160746;28;20078;-59
2022/10/08 08:12:58;;;;;;;75.68;35.25;;;;;;;;;;6158595;28;20128;-62
2022/10/08 08:16:01;;;;;;;67.80;33.95;;;;;;;;;;6159191;28;20062;-59
2022/10/08 08:19:02;;;;;;;51.25;24.48;;;;;;;;;;6159605;28;20039;-61
2022/10/08 08:22:03;;;;;;;56.63;25.25;;;;;;;;;;6156935;28;20045;-59
2022/10/08 08:25:04;;;;;;;53.70;25.58;;;;;;;;;;6160810;28;20431;-60
2022/10/08 08:28:05;;;;;;;51.10;26.20;;;;;;;;;;6167166;28;20077;-60
2022/10/08 08:31:14;;;;;;;52.97;25.17;;;;;;;;;;6168241;28;20078;-60
2022/10/08 08:34:21;;;;;;;58.35;27.25;;;;;;;;;;6168691;28;20070;-60
2022/10/08 08:37:21;;;;;;;48.78;23.52;;;;;;;;;;6164508;28;20055;-60
2022/10/08 08:40:22;;;;;;;57.33;26.33;;;;;;;;;;6161085;28;20039;-60
2022/10/08 08:43:24;;;;;;;50.40;24.13;;;;;;;;;;6159335;28;20046;-60
2022/10/08 08:46:25;;;;;;;;;;;;;;;;;;6157368;28;20173;-62
2022/10/08 08:49:31;;;;;;;53.43;25.07;;;;;;;;;;6158657;28;19926;-60
2022/10/08 08:52:39;;;;;;;55.45;25.25;;;;;;;;;;6161727;28;20078;-60
2022/10/08 08:55:40;;;;;;;59.30;25.25;;;;;;;;;;6159952;28;20668;-60
2022/10/08 08:59:07;;;;;;;54.35;25.13;;;;;;;;;;6162247;28;20050;-59
2022/10/08 09:02:33;;;;;;;55.13;26.92;;;;;;;;;;6158418;28;20070;-61
2022/10/08 09:05:40;;;;;;;48.03;22.90;;;;;;;;;;6160427;28;20813;-59
2022/10/08 09:08:58;;;;;;;53.47;23.48;;;;;;;;;;6162951;28;20051;-61
2022/10/08 09:11:59;;;;;;;46.45;21.27;;;;;;;;;;6160029;28;20039;-60
2022/10/08 09:15:01;;;;;;;50.67;22.60;;;;;;;;;;6159059;28;20034;-60
2022/10/08 09:18:03;;;;;;;46.83;22.77;;;;;;;;;;6158147;28;20050;-60
2022/10/08 09:21:04;;;;;;;50.20;23.52;;;;;;;;;;6157985;28;20047;-59
2022/10/08 09:24:05;;;;;;;54.40;23.80;;;;;;;;;;6157389;28;20082;-64
2022/10/08 09:27:14;;;;;;;52.75;24.50;;;;;;;;;;6159099;28;20042;-60
2022/10/08 09:30:23;;;;;;;53.80;25.38;;;;;;;;;;6159077;28;20134;-60
2022/10/08 09:33:30;;;;;;;46.47;22.70;;;;;;;;;;6157300;28;20047;-59
2022/10/08 09:36:53;;;;;;;52.45;23.58;;;;;;;;;;6156869;28;20165;-58
2022/10/08 09:40:12;;;;;;;50.28;23.48;;;;;;;;;;6157822;28;20063;-62
2022/10/08 09:43:16;;;;;;;48.83;23.75;;;;;;;;;;6158400;28;21296;-61
2022/10/08 09:46:29;;;;;;;48.58;23.10;;;;;;;;;;6155167;28;20082;-61
2022/10/08 09:49:34;;;;;;;39.53;19.05;;;;;;;;;;6159510;28;20057;-60
2022/10/08 09:52:35;;;;;;;41.08;20.40;;;;;;;;;;6167480;28;20236;-58
2022/10/08 09:55:36;;;;;;;41.08;19.80;;;;;;;;;;6159009;28;20206;-60
2022/10/08 09:58:48;;;;;;;35.83;18.17;;;;;;;;;;6161233;28;20035;-60
2022/10/08 10:01:49;;;;;;;36.88;17.65;;;;;;;;;;6167566;28;20141;-59
2022/10/08 10:04:52;;;;;;;41.20;18.77;;;;;;;;;;6163371;28;20493;-62
2022/10/08 10:07:53;;;;;;;37.15;18.27;;;;;;;;;;6166095;28;20141;-64
2022/10/08 10:10:54;;;;;;;38.25;18.98;;;;;;;;;;6164218;28;20046;-63
2022/10/08 10:13:56;;;;;;;39.20;18.92;;;;;;;;;;6162313;28;20047;-65
2022/10/08 10:17:22;;;;;;;37.80;20.27;;;;;;;;;;6162406;28;20410;-64
2022/10/08 10:20:35;;;;;;;33.72;18.15;;;;;;;;;;6161873;28;20525;-60
2022/10/08 10:23:54;;;;;;;39.70;19.58;;;;;;;;;;6165478;28;20055;-60
2022/10/08 10:27:02;;;;;;;37.40;18.65;;;;;;;;;;6162170;28;20886;-60
2022/10/08 10:30:13;;;;;;;39.20;20.48;;;;;;;;;;6164528;28;20057;-60
2022/10/08 10:33:21;;;;;;;41.78;20.27;;;;;;;;;;6160899;28;20133;-60
2022/10/08 10:36:25;;;;;;;39.58;19.25;;;;;;;;;;6162815;28;21400;-60
2022/10/08 10:39:34;;;;;;;39.42;19.88;;;;;;;;;;6161104;28;20419;-60
2022/10/08 10:42:45;;;;;;;45.80;21.42;;;;;;;;;;6169921;28;20078;-61
2022/10/08 10:45:55;;;;;;;49.63;23.40;;;;;;;;;;6170305;28;20114;-61
2022/10/08 10:48:56;;;;;;;46.03;22.75;;;;;;;;;;6149376;28;20061;-59
2022/10/08 10:52:17;;;;;;;50.17;22.47;;;;;;;;;;6157278;28;20100;-59
2022/10/08 10:55:17;;;;;;;42.95;22.33;;;;;;;;;;6155970;28;20304;-57
2022/10/08 10:58:43;;;;;;;52.40;26.00;;;;;;;;;;6155163;28;20460;-60
2022/10/08 11:01:43;;;;;;;47.70;24.08;;;;;;;;;;6158521;28;21133;-60
2022/10/08 11:04:59;;;;;;;50.35;25.48;;;;;;;;;;6159125;28;20066;-62
2022/10/08 11:08:35;;;;;;;49.38;24.23;;;;;;;;;;6156354;28;20058;-62
2022/10/08 11:11:48;;;;;;;48.38;23.70;;;;;;;;;;6144124;28;20687;-61
2022/10/08 11:15:19;;;;;;;46.47;24.35;;;;;;;;;;6159593;28;20536;-61
2022/10/08 11:18:35;;;;;;;49.65;23.48;;;;;;;;;;6156870;28;20051;-63
2022/10/08 11:22:13;;;;;;;47.05;23.88;;;;;;;;;;6157352;28;20137;-62
2022/10/08 11:25:39;;;;;;;44.97;22.73;;;;;;;;;;6158513;28;20177;-62
2022/10/08 11:29:13;;;;;;;42.13;22.58;;;;;;;;;;6157717;28;20077;-59
2022/10/08 11:32:17;;;;;;;46.38;22.52;;;;;;;;;;6159594;28;20518;-62
2022/10/08 11:35:36;;;;;;;46.70;23.77;;;;;;;;;;6159299;28;20066;-63
2022/10/08 11:38:47;;;;;;;41.50;21.40;;;;;;;;;;6155466;28;20054;-63
2022/10/08 11:41:56;;;;;;;41.20;21.42;;;;;;;;;;6158617;28;20054;-60
2022/10/08 11:45:22;;;;;;;44.20;21.70;;;;;;;;;;6159707;28;20066;-59
2022/10/08 11:48:30;;;;;;;42.30;21.42;;;;;;;;;;6155837;28;20074;-61
2022/10/08 11:51:33;;;;;;;37.10;20.50;;;;;;;;;;6157883;28;20517;-60
2022/10/08 11:54:36;;;;;;;45.15;21.10;;;;;;;;;;6159889;28;20105;-60
2022/10/08 11:57:36;;;;;;;35.15;19.33;;;;;;;;;;6152078;28;20046;-60
2022/10/08 12:00:43;;;;;;;36.53;19.37;;;;;;;;;;6157184;28;20129;-63
2022/10/08 12:04:03;;;;;;;33.45;19.15;;;;;;;;;;6158353;28;20046;-60
2022/10/08 12:07:21;;;;;;;35.45;19.23;;;;;;;;;;6156869;28;20108;-61
2022/10/08 12:10:42;;;;;;;42.33;20.08;;;;;;;;;;6157203;28;20137;-59
2022/10/08 12:13:42;;;;;;;34.40;18.73;;;;;;;;;;6157497;28;20058;-60
2022/10/08 12:16:46;;;;;;;34.00;19.10;;;;;;;;;;6155723;28;21015;-61
2022/10/08 12:20:01;;;;;;;31.23;18.10;;;;;;;;;;6158639;28;20134;-58
2022/10/08 12:23:09;;;;;;;36.35;18.65;;;;;;;;;;6157187;28;20127;-61
2022/10/08 12:26:12;;;;;;;37.92;18.27;;;;;;;;;;6157446;28;20051;-58
2022/10/08 12:29:26;;;;;;;35.55;18.23;;;;;;;;;;6155605;28;20058;-61
2022/10/08 12:32:49;;;;;;;36.08;17.85;;;;;;;;;;6156959;28;20537;-60
2022/10/08 12:36:11;;;;;;;43.70;21.42;;;;;;;;;;6158770;28;20064;-59
2022/10/08 12:39:33;;;;;;;48.53;23.08;;;;;;;;;;6156147;28;20065;-59
2022/10/08 12:42:36;;;;;;;37.00;20.50;;;;;;;;;;6157963;28;20196;-59
2022/10/08 12:46:16;;;;;;;59.17;24.50;;;;;;;;;;6153992;28;20112;-60
2022/10/08 12:49:45;;;;;;;50.50;22.75;;;;;;;;;;6127576;28;20629;-60
2022/10/08 12:52:46;;;;;;;36.95;20.35;;;;;;;;;;6155409;28;20632;-60
2022/10/08 12:55:55;;;;;;;41.63;22.07;;;;;;;;;;6156640;28;20046;-60
2022/10/08 12:58:58;;;;;;;40.38;21.67;;;;;;;;;;6153877;28;20422;-62
2022/10/08 13:01:59;;;;;;;40.22;20.42;;;;;;;;;;6156591;28;20070;-60
2022/10/08 13:04:59;;;;;;;46.43;21.97;;;;;;;;;;6156483;28;20046;-60
2022/10/08 13:08:37;;;;;;;38.17;19.80;;;;;;;;;;6151485;28;20039;-62
2022/10/08 13:11:38;;;;;;;34.55;18.63;;;;;;;;;;6130772;28;20063;-61
2022/10/08 13:14:39;;;;;;;33.90;20.37;;;;;;;;;;6157668;28;20058;-60
2022/10/08 13:17:40;;;;;;;39.60;20.80;;;;;;;;;;6155168;28;20053;-60
2022/10/08 13:20:56;;;;;;;43.37;20.77;;;;;;;;;;6157896;28;20367;-59
2022/10/08 13:23:58;;;;;;;46.03;23.63;;;;;;;;;;6158281;28;20544;-59
2022/10/08 13:26:59;;;;;;;40.88;20.23;;;;;;;;;;6155090;28;20046;-60
2022/10/08 13:30:20;;;;;;;33.20;19.17;;;;;;;;;;6157507;28;20050;-58
2022/10/08 13:33:22;;;;;;;;;;;;;;;;;;6158856;28;20459;-60
2022/10/08 13:36:23;;;;;;;48.53;19.45;;;;;;;;;;6161174;28;20309;-61
2022/10/08 13:39:28;;;;;;;40.13;20.37;;;;;;;;;;6161999;28;20047;-61
2022/10/08 13:42:32;;;;;;;37.88;20.23;;;;;;;;;;6161516;28;20051;-62
2022/10/08 13:45:37;;;;;;;37.25;20.23;;;;;;;;;;6162490;28;20495;-62
2022/10/08 13:48:44;;;;;;;49.85;21.83;;;;;;;;;;6158101;28;20066;-66
2022/10/08 13:51:45;;;;;;;37.22;21.80;;;;;;;;;;6162190;28;20413;-59
2022/10/08 13:54:46;;;;;;;35.83;20.57;;;;;;;;;;6163016;28;20169;-60
2022/10/08 13:57:47;;;;;;;;;;;;;;;;;;6159845;28;20141;-60
2022/10/08 14:00:48;;;;;;;45.00;22.08;;;;;;;;;;6161653;28;20393;-60
2022/10/08 14:03:48;;;;;;;40.27;22.33;;;;;;;;;;6161995;28;20281;-60
2022/10/08 14:06:53;;;;;;;44.83;22.98;;;;;;;;;;6160186;28;20438;-61
2022/10/08 14:09:56;;;;;;;47.38;22.65;;;;;;;;;;6160539;28;20053;-60
2022/10/08 14:12:56;;;;;;;43.15;23.05;;;;;;;;;;6159533;28;20422;-57
2022/10/08 14:15:57;;;;;;;40.50;23.13;;;;;;;;;;6161032;28;20043;-58
2022/10/08 14:18:57;;;;;;;50.20;23.20;;;;;;;;;;6157962;28;20127;-61
2022/10/08 14:21:58;;;;;;;46.23;23.47;;;;;;;;;;6161249;28;20154;-62
2022/10/08 14:24:58;;;;;;;48.93;23.13;;;;;;;;;;6161501;28;20058;-57
2022/10/08 14:27:59;;;;;;;40.37;21.37;;;;;;;;;;6157132;28;20558;-60
2022/10/08 14:31:00;;;;;;;45.33;23.37;;;;;;;;;;6160743;28;20046;-60
2022/10/08 14:34:00;;;;;;;44.07;25.10;;;;;;;;;;6159109;28;20167;-60
2022/10/08 14:37:01;;;;;;;49.93;24.97;;;;;;;;;;6157898;28;20042;-61
2022/10/08 14:40:05;;;;;;;47.92;23.80;;;;;;;;;;6159371;28;20531;-57
2022/10/08 14:43:06;;;;;;;44.28;23.08;;;;;;;;;;6161152;28;20051;-60
2022/10/08 14:46:06;;;;;;;44.92;23.38;;;;;;;;;;6161437;28;20481;-61
2022/10/08 14:49:07;;;;;;;47.17;22.43;;;;;;;;;;6157857;28;20054;-61
2022/10/08 14:52:07;;;;;;;44.00;22.40;;;;;;;;;;6160767;28;20074;-61
2022/10/08 14:55:08;;;;;;;42.63;23.00;;;;;;;;;;6161158;28;20050;-62
2022/10/08 14:58:09;;;;;;;46.03;24.58;;;;;;;;;;6158155;28;20058;-66
2022/10/08 15:01:09;;;;;;;53.13;24.67;;;;;;;;;;6160545;28;20140;-63
2022/10/08 15:04:13;;;;;;;43.25;23.40;;;;;;;;;;6160101;28;20046;-61
2022/10/08 15:07:13;;;;;;;51.00;23.45;;;;;;;;;;6158681;28;20047;-59
2022/10/08 15:10:14;;;;;;;48.58;24.30;;;;;;;;;;6159080;28;20175;-64
2022/10/08 15:13:15;;;;;;;52.22;25.60;;;;;;;;;;6160559;28;20768;-63
2022/10/08 15:16:15;;;;;;;44.60;23.87;;;;;;;;;;6159633;28;20066;-54
2022/10/08 15:19:16;;;;;;;50.17;25.65;;;;;;;;;;6155584;28;20414;-58
2022/10/08 15:22:17;;;;;;;51.45;26.05;;;;;;;;;;6158743;28;20047;-54
2022/10/08 15:25:17;;;;;;;50.05;25.65;;;;;;;;;;6160233;28;20066;-56
2022/10/08 15:28:18;;;;;;;50.35;25.23;;;;;;;;;;6157184;28;20501;-67
2022/10/08 15:31:20;;;;;;;47.05;24.27;;;;;;;;;;6159943;28;20062;-59
2022/10/08 15:34:21;;;;;;;52.90;24.88;;;;;;;;;;6160028;28;20043;-58
2022/10/08 15:37:22;;;;;;;44.85;23.35;;;;;;;;;;6157469;28;20461;-60
2022/10/08 15:40:22;;;;;;;46.50;22.67;;;;;;;;;;6158147;28;20061;-61
2022/10/08 15:43:31;;;;;;;44.55;23.30;;;;;;;;;;6159152;28;20120;-59
2022/10/08 15:46:32;;;;;;;42.63;21.55;;;;;;;;;;6156542;28;20170;-64
2022/10/08 15:49:37;;;;;;;47.42;22.80;;;;;;;;;;6157416;28;20058;-59
2022/10/08 15:52:39;;;;;;;47.03;23.60;;;;;;;;;;6158736;28;20142;-57
2022/10/08 15:55:39;;;;;;;47.25;22.27;;;;;;;;;;6159154;28;20054;-59
2022/10/08 15:58:40;;;;;;;45.92;23.80;;;;;;;;;;6154885;28;20066;-60
2022/10/08 16:01:41;;;;;;;48.88;23.52;;;;;;;;;;6157975;28;20058;-60
2022/10/08 16:04:42;;;;;;;52.92;24.33;;;;;;;;;;6158598;28;20051;-60
2022/10/08 16:07:43;;;;;;;50.10;24.38;;;;;;;;;;6156895;28;20070;-64
2022/10/08 16:10:43;;;;;;;49.15;23.90;;;;;;;;;;6156912;28;20138;-61
2022/10/08 16:13:47;;;;;;;59.75;25.38;;;;;;;;;;6158637;28;20053;-60
2022/10/08 16:16:49;;;;;;;54.47;24.70;;;;;;;;;;6156829;28;20097;-61
2022/10/08 16:19:49;;;;;;;58.35;25.23;;;;;;;;;;6156897;28;20078;-62
2022/10/08 16:22:50;;;;;;;57.55;23.92;;;;;;;;;;6157990;28;20047;-59
2022/10/08 16:25:50;;;;;;;60.63;24.88;;;;;;;;;;6140812;28;20410;-58
2022/10/08 16:28:54;;;;;;;55.53;25.05;;;;;;;;;;6155036;28;20475;-55
2022/10/08 16:31:55;;;;;;;54.15;24.65;;;;;;;;;;6157239;28;20080;-58
2022/10/08 16:34:55;;;;;;;63.42;25.75;;;;;;;;;;6157989;28;20054;-58
2022/10/08 16:37:56;;;;;;;55.60;24.08;;;;;;;;;;6156163;28;20043;-65
2022/10/08 16:41:13;;;;;;;51.40;24.55;;;;;;;;;;6156539;28;20047;-55
2022/10/08 16:44:16;;;;;;;52.08;24.65;;;;;;;;;;6156097;28;20061;-61
2022/10/08 16:47:16;;;;;;;52.55;25.38;;;;;;;;;;6156322;28;20047;-60
2022/10/08 16:50:17;;;;;;;56.13;24.38;;;;;;;;;;6153945;28;20050;-58
2022/10/08 16:53:17;;;;;;;54.00;24.08;;;;;;;;;;6152866;28;20090;-58
2022/10/08 16:56:19;;;;;;;48.35;25.05;;;;;;;;;;6151583;28;20072;-59
2022/10/08 16:59:23;;;;;;;53.03;24.80;;;;;;;;;;6147311;28;20074;-59
2022/10/08 17:02:23;;;;;;;57.80;26.42;;;;;;;;;;6149123;28;20070;-59
2022/10/08 17:05:25;;;;;;;62.00;27.55;;;;;;;;;;6150654;28;20958;-65
2022/10/08 17:08:26;;;;;;;63.08;28.63;;;;;;;;;;6148878;28;20043;-63
2022/10/08 17:11:26;;;;;;;67.53;28.45;;;;;;;;;;6155937;28;20113;-59
2022/10/08 17:14:29;;;;;;;68.63;29.30;;;;;;;;;;6155372;28;20074;-59
2022/10/08 17:17:30;;;;;;;70.80;31.50;;;;;;;;;;6153597;28;20054;-62
2022/10/08 17:20:30;;;;;;;70.43;32.90;;;;;;;;;;6152258;28;20112;-59
2022/10/08 17:23:35;;;;;;;66.82;30.38;;;;;;;;;;6154922;28;20062;-66
2022/10/08 17:26:36;;;;;;;72.80;32.33;;;;;;;;;;6152335;28;20051;-59
2022/10/08 17:29:37;;;;;;;70.57;32.27;;;;;;;;;;6152689;28;20112;-59
2022/10/08 17:32:37;;;;;;;67.88;31.75;;;;;;;;;;6154887;28;20518;-58
2022/10/08 17:35:38;;;;;;;76.22;33.33;;;;;;;;;;6155452;28;20086;-59
2022/10/08 17:38:40;;;;;;;84.05;34.30;;;;;;;;;;6153583;28;20059;-58
2022/10/08 17:41:41;;;;;;;;;;;;;;;;;;6153932;28;20161;-59
2022/10/08 17:44:41;;;;;;;83.65;31.90;;;;;;;;;;6153400;28;20378;-58
2022/10/08 17:47:42;;;;;;;82.68;33.17;;;;;;;;;;6155625;28;20089;-59
2022/10/08 17:50:42;;;;;;;74.32;32.88;;;;;;;;;;6154050;28;20047;-59
2022/10/08 17:53:44;;;;;;;83.72;34.38;;;;;;;;;;6155909;28;20054;-59